sensor_id;sensor_type;location;lat;lon;timestamp;P1;durP1;ratioP1;P2;durP2;ratioP2
71973;SDS011;59840;52.122;5.404;2024-03-07T00:00:09;19.52;;;8.40;;
71973;SDS011;59840;52.122;5.404;2024-03-07T00:02:45;18.57;;;8.63;;
71973;SDS011;59840;52.122;5.404;2024-03-07T00:05:17;21.65;;;9.65;;
71973;SDS011;59840;52.122;5.404;2024-03-07T00:07:45;24.15;;;9.68;;
71973;SDS011;59840;52.122;5.404;2024-03-07T00:10:13;19.92;;;8.63;;
71973;SDS011;59840;52.122;5.404;2024-03-07T00:12:42;16.88;;;8.85;;
71973;SDS011;59840;52.122;5.404;2024-03-07T00:15:10;20.00;;;8.70;;
71973;SDS011;59840;52.122;5.404;2024-03-07T00:17:38;21.30;;;9.07;;
71973;SDS011;59840;52.122;5.404;2024-03-07T00:20:05;21.77;;;9.73;;
71973;SDS011;59840;52.122;5.404;2024-03-07T00:22:41;19.45;;;9.32;;
71973;SDS011;59840;52.122;5.404;2024-03-07T00:25:11;18.60;;;8.98;;
71973;SDS011;59840;52.122;5.404;2024-03-07T00:27:39;20.70;;;7.77;;
71973;SDS011;59840;52.122;5.404;2024-03-07T00:30:06;25.02;;;10.80;;
71973;SDS011;59840;52.122;5.404;2024-03-07T00:32:35;24.30;;;9.73;;
71973;SDS011;59840;52.122;5.404;2024-03-07T00:35:03;20.00;;;9.27;;
71973;SDS011;59840;52.122;5.404;2024-03-07T00:37:30;22.10;;;10.05;;
71973;SDS011;59840;52.122;5.404;2024-03-07T00:39:57;23.63;;;9.27;;
71973;SDS011;59840;52.122;5.404;2024-03-07T00:42:24;19.75;;;9.18;;
71973;SDS011;59840;52.122;5.404;2024-03-07T00:44:51;21.73;;;9.15;;
71973;SDS011;59840;52.122;5.404;2024-03-07T00:47:17;22.45;;;10.00;;
71973;SDS011;59840;52.122;5.404;2024-03-07T00:49:44;22.95;;;10.23;;
71973;SDS011;59840;52.122;5.404;2024-03-07T00:52:14;30.30;;;10.13;;
71973;SDS011;59840;52.122;5.404;2024-03-07T00:54:42;23.55;;;9.90;;
71973;SDS011;59840;52.122;5.404;2024-03-07T00:57:09;24.15;;;11.00;;
71973;SDS011;59840;52.122;5.404;2024-03-07T00:59:35;28.15;;;10.15;;
71973;SDS011;59840;52.122;5.404;2024-03-07T01:02:02;28.83;;;11.23;;
71973;SDS011;59840;52.122;5.404;2024-03-07T01:04:30;26.13;;;11.70;;
71973;SDS011;59840;52.122;5.404;2024-03-07T01:07:00;24.98;;;11.48;;
71973;SDS011;59840;52.122;5.404;2024-03-07T01:09:27;26.45;;;12.13;;
71973;SDS011;59840;52.122;5.404;2024-03-07T01:11:57;22.33;;;9.90;;
71973;SDS011;59840;52.122;5.404;2024-03-07T01:14:26;24.13;;;11.80;;
71973;SDS011;59840;52.122;5.404;2024-03-07T01:16:53;27.50;;;11.07;;
71973;SDS011;59840;52.122;5.404;2024-03-07T01:19:20;20.48;;;9.48;;
71973;SDS011;59840;52.122;5.404;2024-03-07T01:21:47;24.20;;;10.20;;
71973;SDS011;59840;52.122;5.404;2024-03-07T01:24:14;19.88;;;9.55;;
71973;SDS011;59840;52.122;5.404;2024-03-07T01:26:44;20.95;;;9.32;;
71973;SDS011;59840;52.122;5.404;2024-03-07T01:29:11;21.63;;;9.33;;
71973;SDS011;59840;52.122;5.404;2024-03-07T01:31:38;17.80;;;8.88;;
71973;SDS011;59840;52.122;5.404;2024-03-07T01:34:05;20.40;;;9.27;;
71973;SDS011;59840;52.122;5.404;2024-03-07T01:36:31;15.35;;;7.05;;
71973;SDS011;59840;52.122;5.404;2024-03-07T01:38:58;18.05;;;7.75;;
71973;SDS011;59840;52.122;5.404;2024-03-07T01:41:25;15.57;;;7.40;;
71973;SDS011;59840;52.122;5.404;2024-03-07T01:43:51;17.88;;;7.68;;
71973;SDS011;59840;52.122;5.404;2024-03-07T01:46:18;22.00;;;8.65;;
71973;SDS011;59840;52.122;5.404;2024-03-07T01:48:45;19.42;;;8.63;;
71973;SDS011;59840;52.122;5.404;2024-03-07T01:51:14;21.40;;;8.55;;
71973;SDS011;59840;52.122;5.404;2024-03-07T01:53:41;19.37;;;8.53;;
71973;SDS011;59840;52.122;5.404;2024-03-07T01:56:08;18.90;;;7.97;;
71973;SDS011;59840;52.122;5.404;2024-03-07T01:58:36;15.45;;;8.10;;
71973;SDS011;59840;52.122;5.404;2024-03-07T02:01:03;19.60;;;8.93;;
71973;SDS011;59840;52.122;5.404;2024-03-07T02:03:29;18.83;;;9.23;;
71973;SDS011;59840;52.122;5.404;2024-03-07T02:05:56;19.63;;;9.50;;
71973;SDS011;59840;52.122;5.404;2024-03-07T02:08:23;22.02;;;8.15;;
71973;SDS011;59840;52.122;5.404;2024-03-07T02:10:50;22.58;;;8.90;;
71973;SDS011;59840;52.122;5.404;2024-03-07T02:13:16;21.40;;;8.73;;
71973;SDS011;59840;52.122;5.404;2024-03-07T02:15:43;21.23;;;8.60;;
71973;SDS011;59840;52.122;5.404;2024-03-07T02:18:10;20.20;;;8.77;;
71973;SDS011;59840;52.122;5.404;2024-03-07T02:20:37;17.02;;;8.02;;
71973;SDS011;59840;52.122;5.404;2024-03-07T02:23:04;19.35;;;8.65;;
71973;SDS011;59840;52.122;5.404;2024-03-07T02:25:31;17.92;;;7.65;;
71973;SDS011;59840;52.122;5.404;2024-03-07T02:27:58;20.25;;;9.32;;
71973;SDS011;59840;52.122;5.404;2024-03-07T02:30:25;23.43;;;10.10;;
71973;SDS011;59840;52.122;5.404;2024-03-07T02:32:52;24.40;;;10.35;;
71973;SDS011;59840;52.122;5.404;2024-03-07T02:35:22;29.27;;;11.45;;
71973;SDS011;59840;52.122;5.404;2024-03-07T02:37:50;28.60;;;11.73;;
71973;SDS011;59840;52.122;5.404;2024-03-07T02:40:17;28.90;;;11.88;;
71973;SDS011;59840;52.122;5.404;2024-03-07T02:42:43;33.00;;;13.03;;
71973;SDS011;59840;52.122;5.404;2024-03-07T02:45:10;32.05;;;12.90;;
71973;SDS011;59840;52.122;5.404;2024-03-07T02:47:41;34.80;;;12.65;;
71973;SDS011;59840;52.122;5.404;2024-03-07T02:50:09;28.33;;;12.43;;
71973;SDS011;59840;52.122;5.404;2024-03-07T02:52:37;34.72;;;12.80;;
71973;SDS011;59840;52.122;5.404;2024-03-07T02:55:03;26.30;;;11.67;;
71973;SDS011;59840;52.122;5.404;2024-03-07T02:57:31;26.80;;;11.02;;
71973;SDS011;59840;52.122;5.404;2024-03-07T02:59:58;21.67;;;10.18;;
71973;SDS011;59840;52.122;5.404;2024-03-07T03:02:25;25.20;;;11.50;;
71973;SDS011;59840;52.122;5.404;2024-03-07T03:04:52;24.13;;;10.52;;
71973;SDS011;59840;52.122;5.404;2024-03-07T03:07:18;27.43;;;11.30;;
71973;SDS011;59840;52.122;5.404;2024-03-07T03:09:45;25.48;;;10.60;;
71973;SDS011;59840;52.122;5.404;2024-03-07T03:12:12;26.05;;;10.23;;
71973;SDS011;59840;52.122;5.404;2024-03-07T03:14:39;24.20;;;10.77;;
71973;SDS011;59840;52.122;5.404;2024-03-07T03:17:06;29.30;;;11.57;;
71973;SDS011;59840;52.122;5.404;2024-03-07T03:19:35;23.40;;;11.13;;
71973;SDS011;59840;52.122;5.404;2024-03-07T03:22:02;28.90;;;12.20;;
71973;SDS011;59840;52.122;5.404;2024-03-07T03:24:29;25.23;;;9.85;;
71973;SDS011;59840;52.122;5.404;2024-03-07T03:26:57;27.10;;;11.25;;
71973;SDS011;59840;52.122;5.404;2024-03-07T03:29:24;30.52;;;12.38;;
71973;SDS011;59840;52.122;5.404;2024-03-07T03:31:50;23.23;;;9.57;;
71973;SDS011;59840;52.122;5.404;2024-03-07T03:34:17;23.25;;;9.38;;
71973;SDS011;59840;52.122;5.404;2024-03-07T03:36:44;31.50;;;11.77;;
71973;SDS011;59840;52.122;5.404;2024-03-07T03:39:10;28.33;;;12.02;;
71973;SDS011;59840;52.122;5.404;2024-03-07T03:41:39;30.92;;;10.65;;
71973;SDS011;59840;52.122;5.404;2024-03-07T03:44:06;23.60;;;10.53;;
71973;SDS011;59840;52.122;5.404;2024-03-07T03:46:34;25.75;;;10.80;;
71973;SDS011;59840;52.122;5.404;2024-03-07T03:49:00;24.67;;;10.10;;
71973;SDS011;59840;52.122;5.404;2024-03-07T03:51:27;24.60;;;10.30;;
71973;SDS011;59840;52.122;5.404;2024-03-07T03:53:54;24.08;;;11.23;;
71973;SDS011;59840;52.122;5.404;2024-03-07T03:56:21;24.67;;;10.57;;
71973;SDS011;59840;52.122;5.404;2024-03-07T03:58:48;22.55;;;9.05;;
71973;SDS011;59840;52.122;5.404;2024-03-07T04:01:14;21.50;;;9.57;;
71973;SDS011;59840;52.122;5.404;2024-03-07T04:03:42;23.67;;;10.43;;
71973;SDS011;59840;52.122;5.404;2024-03-07T04:06:13;21.65;;;10.20;;
71973;SDS011;59840;52.122;5.404;2024-03-07T04:08:40;20.97;;;8.80;;
71973;SDS011;59840;52.122;5.404;2024-03-07T04:11:07;23.30;;;10.05;;
71973;SDS011;59840;52.122;5.404;2024-03-07T04:13:36;24.80;;;10.10;;
71973;SDS011;59840;52.122;5.404;2024-03-07T04:16:03;27.67;;;11.35;;
71973;SDS011;59840;52.122;5.404;2024-03-07T04:18:30;23.13;;;9.93;;
71973;SDS011;59840;52.122;5.404;2024-03-07T04:20:59;28.30;;;11.53;;
71973;SDS011;59840;52.122;5.404;2024-03-07T04:23:26;26.92;;;11.13;;
71973;SDS011;59840;52.122;5.404;2024-03-07T04:25:54;27.48;;;12.20;;
71973;SDS011;59840;52.122;5.404;2024-03-07T04:28:22;27.73;;;11.18;;
71973;SDS011;59840;52.122;5.404;2024-03-07T04:30:49;31.35;;;11.68;;
71973;SDS011;59840;52.122;5.404;2024-03-07T04:33:16;25.83;;;11.60;;
71973;SDS011;59840;52.122;5.404;2024-03-07T04:35:42;23.95;;;10.10;;
71973;SDS011;59840;52.122;5.404;2024-03-07T04:38:09;23.30;;;10.18;;
71973;SDS011;59840;52.122;5.404;2024-03-07T04:40:38;20.48;;;9.75;;
71973;SDS011;59840;52.122;5.404;2024-03-07T04:43:05;20.95;;;10.18;;
71973;SDS011;59840;52.122;5.404;2024-03-07T04:45:32;27.47;;;10.80;;
71973;SDS011;59840;52.122;5.404;2024-03-07T04:47:58;28.08;;;10.30;;
71973;SDS011;59840;52.122;5.404;2024-03-07T04:50:25;24.10;;;10.52;;
71973;SDS011;59840;52.122;5.404;2024-03-07T04:52:52;31.23;;;10.98;;
71973;SDS011;59840;52.122;5.404;2024-03-07T04:55:20;26.15;;;11.38;;
71973;SDS011;59840;52.122;5.404;2024-03-07T04:57:46;26.80;;;10.63;;
71973;SDS011;59840;52.122;5.404;2024-03-07T05:00:13;25.13;;;10.35;;
71973;SDS011;59840;52.122;5.404;2024-03-07T05:02:44;20.77;;;10.80;;
71973;SDS011;59840;52.122;5.404;2024-03-07T05:05:15;27.08;;;10.50;;
71973;SDS011;59840;52.122;5.404;2024-03-07T05:07:49;26.50;;;10.90;;
71973;SDS011;59840;52.122;5.404;2024-03-07T05:10:17;26.87;;;10.70;;
71973;SDS011;59840;52.122;5.404;2024-03-07T05:12:44;27.42;;;11.88;;
71973;SDS011;59840;52.122;5.404;2024-03-07T05:15:11;25.90;;;11.32;;
71973;SDS011;59840;52.122;5.404;2024-03-07T05:17:37;27.98;;;10.85;;
71973;SDS011;59840;52.122;5.404;2024-03-07T05:20:06;22.15;;;9.60;;
71973;SDS011;59840;52.122;5.404;2024-03-07T05:22:37;25.07;;;10.43;;
71973;SDS011;59840;52.122;5.404;2024-03-07T05:25:13;25.83;;;9.90;;
71973;SDS011;59840;52.122;5.404;2024-03-07T05:27:42;26.73;;;11.07;;
71973;SDS011;59840;52.122;5.404;2024-03-07T05:30:09;23.10;;;10.45;;
71973;SDS011;59840;52.122;5.404;2024-03-07T05:32:38;30.40;;;11.05;;
71973;SDS011;59840;52.122;5.404;2024-03-07T05:35:06;25.30;;;11.10;;
71973;SDS011;59840;52.122;5.404;2024-03-07T05:37:33;25.42;;;11.43;;
71973;SDS011;59840;52.122;5.404;2024-03-07T05:40:00;28.58;;;11.30;;
71973;SDS011;59840;52.122;5.404;2024-03-07T05:42:29;28.42;;;12.10;;
71973;SDS011;59840;52.122;5.404;2024-03-07T05:44:56;27.02;;;11.50;;
71973;SDS011;59840;52.122;5.404;2024-03-07T05:47:22;27.60;;;11.07;;
71973;SDS011;59840;52.122;5.404;2024-03-07T05:49:49;25.05;;;10.80;;
71973;SDS011;59840;52.122;5.404;2024-03-07T05:52:16;23.48;;;9.82;;
71973;SDS011;59840;52.122;5.404;2024-03-07T05:54:43;30.55;;;12.07;;
71973;SDS011;59840;52.122;5.404;2024-03-07T05:57:10;30.83;;;12.48;;
71973;SDS011;59840;52.122;5.404;2024-03-07T05:59:38;27.00;;;11.87;;
71973;SDS011;59840;52.122;5.404;2024-03-07T06:02:05;28.30;;;10.77;;
71973;SDS011;59840;52.122;5.404;2024-03-07T06:04:32;21.25;;;10.48;;
71973;SDS011;59840;52.122;5.404;2024-03-07T06:06:58;26.08;;;10.95;;
71973;SDS011;59840;52.122;5.404;2024-03-07T06:09:26;23.80;;;11.02;;
71973;SDS011;59840;52.122;5.404;2024-03-07T06:11:53;30.67;;;10.73;;
71973;SDS011;59840;52.122;5.404;2024-03-07T06:14:19;25.30;;;11.30;;
71973;SDS011;59840;52.122;5.404;2024-03-07T06:16:46;25.70;;;12.20;;
71973;SDS011;59840;52.122;5.404;2024-03-07T06:19:13;26.90;;;11.98;;
71973;SDS011;59840;52.122;5.404;2024-03-07T06:21:40;34.78;;;13.30;;
71973;SDS011;59840;52.122;5.404;2024-03-07T06:24:07;37.10;;;13.70;;
71973;SDS011;59840;52.122;5.404;2024-03-07T06:26:37;35.60;;;12.25;;
71973;SDS011;59840;52.122;5.404;2024-03-07T06:29:10;30.80;;;11.98;;
71973;SDS011;59840;52.122;5.404;2024-03-07T06:31:44;28.60;;;11.82;;
71973;SDS011;59840;52.122;5.404;2024-03-07T06:34:14;25.85;;;11.82;;
71973;SDS011;59840;52.122;5.404;2024-03-07T06:36:41;29.33;;;11.20;;
71973;SDS011;59840;52.122;5.404;2024-03-07T06:39:08;32.38;;;12.13;;
71973;SDS011;59840;52.122;5.404;2024-03-07T06:41:37;30.52;;;12.63;;
71973;SDS011;59840;52.122;5.404;2024-03-07T06:44:04;27.02;;;12.27;;
71973;SDS011;59840;52.122;5.404;2024-03-07T06:46:31;30.05;;;12.63;;
71973;SDS011;59840;52.122;5.404;2024-03-07T06:49:00;27.07;;;12.00;;
71973;SDS011;59840;52.122;5.404;2024-03-07T06:51:27;32.08;;;13.73;;
71973;SDS011;59840;52.122;5.404;2024-03-07T06:53:53;33.45;;;14.82;;
71973;SDS011;59840;52.122;5.404;2024-03-07T06:56:22;33.13;;;13.77;;
71973;SDS011;59840;52.122;5.404;2024-03-07T06:58:50;34.30;;;14.43;;
71973;SDS011;59840;52.122;5.404;2024-03-07T07:01:17;28.50;;;12.97;;
71973;SDS011;59840;52.122;5.404;2024-03-07T07:03:44;33.60;;;14.23;;
71973;SDS011;59840;52.122;5.404;2024-03-07T07:06:12;34.97;;;13.90;;
71973;SDS011;59840;52.122;5.404;2024-03-07T07:08:38;28.67;;;13.38;;
71973;SDS011;59840;52.122;5.404;2024-03-07T07:11:06;34.10;;;14.68;;
71973;SDS011;59840;52.122;5.404;2024-03-07T07:13:32;32.43;;;14.50;;
71973;SDS011;59840;52.122;5.404;2024-03-07T07:15:59;35.47;;;15.15;;
71973;SDS011;59840;52.122;5.404;2024-03-07T07:18:28;31.48;;;13.45;;
71973;SDS011;59840;52.122;5.404;2024-03-07T07:20:54;29.77;;;12.57;;
71973;SDS011;59840;52.122;5.404;2024-03-07T07:23:23;26.50;;;12.20;;
71973;SDS011;59840;52.122;5.404;2024-03-07T07:25:50;27.33;;;13.40;;
71973;SDS011;59840;52.122;5.404;2024-03-07T07:28:16;29.80;;;12.85;;
71973;SDS011;59840;52.122;5.404;2024-03-07T07:30:43;29.40;;;13.57;;
71973;SDS011;59840;52.122;5.404;2024-03-07T07:33:11;29.73;;;12.98;;
71973;SDS011;59840;52.122;5.404;2024-03-07T07:35:39;29.13;;;13.38;;
71973;SDS011;59840;52.122;5.404;2024-03-07T07:38:07;28.80;;;12.70;;
71973;SDS011;59840;52.122;5.404;2024-03-07T07:40:37;26.70;;;12.85;;
71973;SDS011;59840;52.122;5.404;2024-03-07T07:43:03;30.52;;;13.07;;
71973;SDS011;59840;52.122;5.404;2024-03-07T07:45:30;25.65;;;13.00;;
71973;SDS011;59840;52.122;5.404;2024-03-07T07:47:59;29.92;;;12.68;;
71973;SDS011;59840;52.122;5.404;2024-03-07T07:50:26;26.03;;;12.43;;
71973;SDS011;59840;52.122;5.404;2024-03-07T07:52:54;25.77;;;12.20;;
71973;SDS011;59840;52.122;5.404;2024-03-07T07:55:25;27.00;;;12.27;;
71973;SDS011;59840;52.122;5.404;2024-03-07T07:57:57;26.90;;;12.75;;
71973;SDS011;59840;52.122;5.404;2024-03-07T08:00:24;27.73;;;12.48;;
71973;SDS011;59840;52.122;5.404;2024-03-07T08:03:00;27.80;;;12.50;;
71973;SDS011;59840;52.122;5.404;2024-03-07T08:05:29;22.77;;;11.63;;
71973;SDS011;59840;52.122;5.404;2024-03-07T08:08:02;27.70;;;12.93;;
71973;SDS011;59840;52.122;5.404;2024-03-07T08:10:33;21.98;;;11.13;;
71973;SDS011;59840;52.122;5.404;2024-03-07T08:13:02;21.20;;;10.43;;
71973;SDS011;59840;52.122;5.404;2024-03-07T08:15:30;23.87;;;11.63;;
71973;SDS011;59840;52.122;5.404;2024-03-07T08:17:57;23.17;;;11.40;;
71973;SDS011;59840;52.122;5.404;2024-03-07T08:20:26;21.00;;;11.50;;
71973;SDS011;59840;52.122;5.404;2024-03-07T08:22:54;24.63;;;12.07;;
71973;SDS011;59840;52.122;5.404;2024-03-07T08:25:25;22.45;;;10.73;;
71973;SDS011;59840;52.122;5.404;2024-03-07T08:27:54;22.20;;;11.20;;
71973;SDS011;59840;52.122;5.404;2024-03-07T08:30:23;20.38;;;10.75;;
71973;SDS011;59840;52.122;5.404;2024-03-07T08:32:51;23.33;;;10.77;;
71973;SDS011;59840;52.122;5.404;2024-03-07T08:35:19;20.27;;;11.27;;
71973;SDS011;59840;52.122;5.404;2024-03-07T08:37:47;21.40;;;10.93;;
71973;SDS011;59840;52.122;5.404;2024-03-07T08:40:22;19.67;;;10.27;;
71973;SDS011;59840;52.122;5.404;2024-03-07T08:42:58;21.02;;;10.82;;
71973;SDS011;59840;52.122;5.404;2024-03-07T08:45:26;21.70;;;10.02;;
71973;SDS011;59840;52.122;5.404;2024-03-07T08:47:54;22.23;;;10.27;;
71973;SDS011;59840;52.122;5.404;2024-03-07T08:50:23;23.05;;;9.93;;
71973;SDS011;59840;52.122;5.404;2024-03-07T08:52:50;17.60;;;10.10;;
71973;SDS011;59840;52.122;5.404;2024-03-07T08:55:20;20.58;;;9.85;;
71973;SDS011;59840;52.122;5.404;2024-03-07T08:57:47;19.73;;;9.90;;
71973;SDS011;59840;52.122;5.404;2024-03-07T09:00:15;18.33;;;9.85;;
71973;SDS011;59840;52.122;5.404;2024-03-07T09:02:53;18.92;;;10.05;;
71973;SDS011;59840;52.122;5.404;2024-03-07T09:05:22;18.13;;;9.40;;
71973;SDS011;59840;52.122;5.404;2024-03-07T09:07:50;16.67;;;9.02;;
71973;SDS011;59840;52.122;5.404;2024-03-07T09:10:18;16.92;;;9.13;;
71973;SDS011;59840;52.122;5.404;2024-03-07T09:12:45;14.90;;;8.32;;
71973;SDS011;59840;52.122;5.404;2024-03-07T09:15:12;18.20;;;9.30;;
71973;SDS011;59840;52.122;5.404;2024-03-07T09:17:39;14.67;;;8.60;;
71973;SDS011;59840;52.122;5.404;2024-03-07T09:20:06;16.73;;;9.32;;
71973;SDS011;59840;52.122;5.404;2024-03-07T09:22:37;16.63;;;9.43;;
71973;SDS011;59840;52.122;5.404;2024-03-07T09:25:03;15.00;;;8.57;;
71973;SDS011;59840;52.122;5.404;2024-03-07T09:27:30;13.52;;;7.90;;
71973;SDS011;59840;52.122;5.404;2024-03-07T09:29:57;15.77;;;8.67;;
71973;SDS011;59840;52.122;5.404;2024-03-07T09:32:24;15.05;;;7.97;;
71973;SDS011;59840;52.122;5.404;2024-03-07T09:34:50;14.48;;;7.72;;
71973;SDS011;59840;52.122;5.404;2024-03-07T09:37:17;13.15;;;7.70;;
71973;SDS011;59840;52.122;5.404;2024-03-07T09:39:45;13.25;;;7.80;;
71973;SDS011;59840;52.122;5.404;2024-03-07T09:42:12;15.00;;;8.13;;
71973;SDS011;59840;52.122;5.404;2024-03-07T09:44:43;13.65;;;8.05;;
71973;SDS011;59840;52.122;5.404;2024-03-07T09:47:13;13.70;;;7.28;;
71973;SDS011;59840;52.122;5.404;2024-03-07T09:49:41;16.70;;;8.05;;
71973;SDS011;59840;52.122;5.404;2024-03-07T09:52:07;11.80;;;7.70;;
71973;SDS011;59840;52.122;5.404;2024-03-07T09:54:38;14.73;;;7.40;;
71973;SDS011;59840;52.122;5.404;2024-03-07T09:57:06;14.13;;;7.63;;
71973;SDS011;59840;52.122;5.404;2024-03-07T09:59:36;15.63;;;8.50;;
71973;SDS011;59840;52.122;5.404;2024-03-07T10:02:06;14.27;;;7.97;;
71973;SDS011;59840;52.122;5.404;2024-03-07T10:04:38;14.88;;;8.38;;
71973;SDS011;59840;52.122;5.404;2024-03-07T10:07:14;13.30;;;7.80;;
71973;SDS011;59840;52.122;5.404;2024-03-07T10:09:43;14.02;;;8.55;;
71973;SDS011;59840;52.122;5.404;2024-03-07T10:12:11;15.45;;;7.93;;
71973;SDS011;59840;52.122;5.404;2024-03-07T10:14:48;15.27;;;8.63;;
71973;SDS011;59840;52.122;5.404;2024-03-07T10:17:17;17.02;;;8.07;;
71973;SDS011;59840;52.122;5.404;2024-03-07T10:19:47;15.93;;;8.33;;
71973;SDS011;59840;52.122;5.404;2024-03-07T10:22:17;14.38;;;7.95;;
71973;SDS011;59840;52.122;5.404;2024-03-07T10:24:51;20.90;;;8.38;;
71973;SDS011;59840;52.122;5.404;2024-03-07T10:27:25;15.30;;;7.97;;
71973;SDS011;59840;52.122;5.404;2024-03-07T10:29:54;13.90;;;7.53;;
71973;SDS011;59840;52.122;5.404;2024-03-07T10:32:21;15.83;;;7.90;;
71973;SDS011;59840;52.122;5.404;2024-03-07T10:34:52;13.02;;;7.43;;
71973;SDS011;59840;52.122;5.404;2024-03-07T10:37:19;16.20;;;7.45;;
71973;SDS011;59840;52.122;5.404;2024-03-07T10:39:51;16.38;;;8.48;;
71973;SDS011;59840;52.122;5.404;2024-03-07T10:42:18;17.42;;;8.07;;
71973;SDS011;59840;52.122;5.404;2024-03-07T10:44:48;16.20;;;8.50;;
71973;SDS011;59840;52.122;5.404;2024-03-07T10:47:16;15.02;;;7.93;;
71973;SDS011;59840;52.122;5.404;2024-03-07T11:01:05;15.18;;;7.65;;
71973;SDS011;59840;52.122;5.404;2024-03-07T11:03:34;14.63;;;7.50;;
71973;SDS011;59840;52.122;5.404;2024-03-07T11:06:01;11.50;;;6.53;;
71973;SDS011;59840;52.122;5.404;2024-03-07T11:08:36;16.45;;;7.55;;
71973;SDS011;59840;52.122;5.404;2024-03-07T11:11:04;15.17;;;7.30;;
71973;SDS011;59840;52.122;5.404;2024-03-07T11:13:30;15.60;;;7.28;;
71973;SDS011;59840;52.122;5.404;2024-03-07T11:15:59;12.30;;;7.53;;
71973;SDS011;59840;52.122;5.404;2024-03-07T11:18:29;15.55;;;8.40;;
71973;SDS011;59840;52.122;5.404;2024-03-07T11:20:56;17.83;;;7.95;;
71973;SDS011;59840;52.122;5.404;2024-03-07T11:23:30;15.93;;;7.90;;
71973;SDS011;59840;52.122;5.404;2024-03-07T11:26:09;13.27;;;7.70;;
71973;SDS011;59840;52.122;5.404;2024-03-07T11:28:38;13.15;;;8.10;;
71973;SDS011;59840;52.122;5.404;2024-03-07T11:33:40;15.98;;;7.50;;
71973;SDS011;59840;52.122;5.404;2024-03-07T11:36:08;12.80;;;7.13;;
71973;SDS011;59840;52.122;5.404;2024-03-07T11:38:44;14.80;;;7.68;;
71973;SDS011;59840;52.122;5.404;2024-03-07T11:41:15;15.45;;;7.93;;
71973;SDS011;59840;52.122;5.404;2024-03-07T11:43:46;14.88;;;7.82;;
71973;SDS011;59840;52.122;5.404;2024-03-07T11:46:12;15.60;;;7.90;;
71973;SDS011;59840;52.122;5.404;2024-03-07T11:48:43;19.07;;;8.80;;
71973;SDS011;59840;52.122;5.404;2024-03-07T11:51:13;14.23;;;7.60;;
71973;SDS011;59840;52.122;5.404;2024-03-07T11:53:43;15.85;;;8.48;;
71973;SDS011;59840;52.122;5.404;2024-03-07T11:56:10;13.77;;;7.00;;
71973;SDS011;59840;52.122;5.404;2024-03-07T11:58:43;13.23;;;7.43;;
71973;SDS011;59840;52.122;5.404;2024-03-07T12:01:11;14.40;;;7.53;;
71973;SDS011;59840;52.122;5.404;2024-03-07T12:03:40;14.43;;;6.97;;
71973;SDS011;59840;52.122;5.404;2024-03-07T12:06:07;14.63;;;7.85;;
71973;SDS011;59840;52.122;5.404;2024-03-07T12:08:39;14.57;;;7.05;;
71973;SDS011;59840;52.122;5.404;2024-03-07T12:11:08;14.20;;;8.10;;
71973;SDS011;59840;52.122;5.404;2024-03-07T12:13:39;19.63;;;7.93;;
71973;SDS011;59840;52.122;5.404;2024-03-07T12:16:07;16.00;;;7.40;;
71973;SDS011;59840;52.122;5.404;2024-03-07T12:18:35;13.38;;;7.03;;
71973;SDS011;59840;52.122;5.404;2024-03-07T12:21:03;12.38;;;7.22;;
71973;SDS011;59840;52.122;5.404;2024-03-07T12:23:33;14.95;;;6.88;;
71973;SDS011;59840;52.122;5.404;2024-03-07T12:26:03;13.40;;;6.83;;
71973;SDS011;59840;52.122;5.404;2024-03-07T12:28:31;13.05;;;6.68;;
71973;SDS011;59840;52.122;5.404;2024-03-07T12:31:02;12.88;;;7.40;;
71973;SDS011;59840;52.122;5.404;2024-03-07T12:33:30;11.80;;;6.72;;
71973;SDS011;59840;52.122;5.404;2024-03-07T12:36:01;14.55;;;7.57;;
71973;SDS011;59840;52.122;5.404;2024-03-07T12:38:38;13.90;;;7.20;;
71973;SDS011;59840;52.122;5.404;2024-03-07T12:41:08;14.05;;;7.40;;
71973;SDS011;59840;52.122;5.404;2024-03-07T12:43:43;12.77;;;6.97;;
71973;SDS011;59840;52.122;5.404;2024-03-07T12:46:12;12.88;;;7.22;;
71973;SDS011;59840;52.122;5.404;2024-03-07T12:48:43;13.50;;;7.18;;
71973;SDS011;59840;52.122;5.404;2024-03-07T12:51:12;14.23;;;6.90;;
71973;SDS011;59840;52.122;5.404;2024-03-07T12:53:46;15.73;;;8.05;;
71973;SDS011;59840;52.122;5.404;2024-03-07T12:56:13;13.15;;;6.82;;
71973;SDS011;59840;52.122;5.404;2024-03-07T12:58:46;12.57;;;6.90;;
71973;SDS011;59840;52.122;5.404;2024-03-07T13:01:13;11.90;;;6.70;;
71973;SDS011;59840;52.122;5.404;2024-03-07T13:03:41;15.77;;;7.30;;
71973;SDS011;59840;52.122;5.404;2024-03-07T13:06:11;14.52;;;7.80;;
71973;SDS011;59840;52.122;5.404;2024-03-07T13:08:38;11.75;;;7.07;;
71973;SDS011;59840;52.122;5.404;2024-03-07T13:11:06;13.30;;;7.82;;
71973;SDS011;59840;52.122;5.404;2024-03-07T13:13:36;14.57;;;7.32;;
71973;SDS011;59840;52.122;5.404;2024-03-07T13:16:03;11.10;;;7.10;;
71973;SDS011;59840;52.122;5.404;2024-03-07T13:18:31;11.50;;;6.88;;
71973;SDS011;59840;52.122;5.404;2024-03-07T13:21:00;12.27;;;6.65;;
71973;SDS011;59840;52.122;5.404;2024-03-07T13:23:31;9.95;;;6.13;;
71973;SDS011;59840;52.122;5.404;2024-03-07T13:26:01;13.07;;;7.15;;
71973;SDS011;59840;52.122;5.404;2024-03-07T13:28:28;12.37;;;6.80;;
71973;SDS011;59840;52.122;5.404;2024-03-07T13:30:56;10.20;;;6.25;;
71973;SDS011;59840;52.122;5.404;2024-03-07T13:33:23;9.68;;;5.72;;
71973;SDS011;59840;52.122;5.404;2024-03-07T13:35:52;11.25;;;6.38;;
71973;SDS011;59840;52.122;5.404;2024-03-07T13:38:19;15.57;;;7.63;;
71973;SDS011;59840;52.122;5.404;2024-03-07T13:40:46;14.90;;;7.27;;
71973;SDS011;59840;52.122;5.404;2024-03-07T13:43:16;13.60;;;7.20;;
71973;SDS011;59840;52.122;5.404;2024-03-07T13:45:44;14.15;;;7.55;;
71973;SDS011;59840;52.122;5.404;2024-03-07T13:48:11;9.82;;;6.85;;
71973;SDS011;59840;52.122;5.404;2024-03-07T13:50:40;15.35;;;7.88;;
71973;SDS011;59840;52.122;5.404;2024-03-07T13:53:11;12.03;;;7.17;;
71973;SDS011;59840;52.122;5.404;2024-03-07T14:24:16;12.30;;;7.13;;
71973;SDS011;59840;52.122;5.404;2024-03-07T14:31:44;10.48;;;6.43;;
71973;SDS011;59840;52.122;5.404;2024-03-07T14:37:08;10.88;;;6.38;;
71973;SDS011;59840;52.122;5.404;2024-03-07T14:39:43;9.95;;;6.43;;
71973;SDS011;59840;52.122;5.404;2024-03-07T14:42:14;9.73;;;7.05;;
71973;SDS011;59840;52.122;5.404;2024-03-07T14:44:44;9.60;;;6.47;;
71973;SDS011;59840;52.122;5.404;2024-03-07T14:47:16;12.40;;;7.30;;
71973;SDS011;59840;52.122;5.404;2024-03-07T14:49:46;13.88;;;7.88;;
71973;SDS011;59840;52.122;5.404;2024-03-07T14:52:13;13.00;;;7.85;;
71973;SDS011;59840;52.122;5.404;2024-03-07T14:54:41;10.52;;;7.25;;
71973;SDS011;59840;52.122;5.404;2024-03-07T14:57:09;10.48;;;7.25;;
71973;SDS011;59840;52.122;5.404;2024-03-07T14:59:37;11.33;;;6.80;;
71973;SDS011;59840;52.122;5.404;2024-03-07T15:02:04;10.55;;;6.60;;
71973;SDS011;59840;52.122;5.404;2024-03-07T15:04:37;9.20;;;6.60;;
71973;SDS011;59840;52.122;5.404;2024-03-07T15:07:05;11.52;;;6.47;;
71973;SDS011;59840;52.122;5.404;2024-03-07T15:09:31;10.88;;;6.00;;
71973;SDS011;59840;52.122;5.404;2024-03-07T15:12:00;11.87;;;6.77;;
71973;SDS011;59840;52.122;5.404;2024-03-07T15:14:27;10.05;;;6.90;;
71973;SDS011;59840;52.122;5.404;2024-03-07T15:17:04;9.93;;;7.03;;
71973;SDS011;59840;52.122;5.404;2024-03-07T15:19:33;11.13;;;6.90;;
71973;SDS011;59840;52.122;5.404;2024-03-07T15:22:01;12.95;;;6.78;;
71973;SDS011;59840;52.122;5.404;2024-03-07T15:24:30;10.43;;;7.27;;